sensor_id;sensor_type;location;lat;lon;timestamp;P1;durP1;ratioP1;P2;durP2;ratioP2
74541;SDS011;63015;45.378;20.360;2023-06-14T00:01:55;5.40;;;2.28;;
74541;SDS011;63015;45.378;20.360;2023-06-14T00:03:56;4.13;;;2.05;;
74541;SDS011;63015;45.378;20.360;2023-06-14T00:05:56;4.28;;;2.20;;
74541;SDS011;63015;45.378;20.360;2023-06-14T00:07:57;5.28;;;2.10;;
74541;SDS011;63015;45.378;20.360;2023-06-14T00:10:00;6.85;;;2.28;;
74541;SDS011;63015;45.378;20.360;2023-06-14T00:12:01;4.55;;;2.15;;
74541;SDS011;63015;45.378;20.360;2023-06-14T00:14:02;6.15;;;2.00;;
74541;SDS011;63015;45.378;20.360;2023-06-14T00:16:04;4.80;;;2.20;;
74541;SDS011;63015;45.378;20.360;2023-06-14T00:18:04;5.40;;;1.80;;
74541;SDS011;63015;45.378;20.360;2023-06-14T00:20:05;5.38;;;2.38;;
74541;SDS011;63015;45.378;20.360;2023-06-14T00:22:06;6.38;;;2.13;;
74541;SDS011;63015;45.378;20.360;2023-06-14T00:24:07;5.65;;;2.47;;
74541;SDS011;63015;45.378;20.360;2023-06-14T00:26:08;7.82;;;2.28;;
74541;SDS011;63015;45.378;20.360;2023-06-14T00:28:09;5.25;;;2.50;;
74541;SDS011;63015;45.378;20.360;2023-06-14T00:30:09;5.80;;;2.65;;
74541;SDS011;63015;45.378;20.360;2023-06-14T00:32:11;5.18;;;2.67;;
74541;SDS011;63015;45.378;20.360;2023-06-14T00:34:11;7.75;;;3.00;;
74541;SDS011;63015;45.378;20.360;2023-06-14T00:36:15;6.05;;;2.90;;
74541;SDS011;63015;45.378;20.360;2023-06-14T00:38:16;6.20;;;2.75;;
74541;SDS011;63015;45.378;20.360;2023-06-14T00:40:17;5.75;;;3.00;;
74541;SDS011;63015;45.378;20.360;2023-06-14T00:42:25;9.55;;;3.45;;
74541;SDS011;63015;45.378;20.360;2023-06-14T00:44:27;6.18;;;3.35;;
74541;SDS011;63015;45.378;20.360;2023-06-14T00:46:27;8.27;;;3.72;;
74541;SDS011;63015;45.378;20.360;2023-06-14T00:48:28;11.25;;;4.32;;
74541;SDS011;63015;45.378;20.360;2023-06-14T00:50:30;10.85;;;4.32;;
74541;SDS011;63015;45.378;20.360;2023-06-14T00:52:32;10.18;;;4.60;;
74541;SDS011;63015;45.378;20.360;2023-06-14T00:54:33;10.52;;;4.32;;
74541;SDS011;63015;45.378;20.360;2023-06-14T00:56:35;12.55;;;4.97;;
74541;SDS011;63015;45.378;20.360;2023-06-14T00:58:36;10.70;;;5.05;;
74541;SDS011;63015;45.378;20.360;2023-06-14T01:00:37;8.18;;;4.35;;
74541;SDS011;63015;45.378;20.360;2023-06-14T01:02:38;10.82;;;4.97;;
74541;SDS011;63015;45.378;20.360;2023-06-14T01:04:39;11.10;;;5.68;;
74541;SDS011;63015;45.378;20.360;2023-06-14T01:06:58;11.25;;;5.88;;
74541;SDS011;63015;45.378;20.360;2023-06-14T01:11:28;9.90;;;5.32;;
74541;SDS011;63015;45.378;20.360;2023-06-14T01:13:39;8.70;;;5.30;;
74541;SDS011;63015;45.378;20.360;2023-06-14T01:15:44;13.75;;;4.70;;
74541;SDS011;63015;45.378;20.360;2023-06-14T01:17:45;8.43;;;4.20;;
74541;SDS011;63015;45.378;20.360;2023-06-14T01:19:51;10.27;;;4.78;;
74541;SDS011;63015;45.378;20.360;2023-06-14T01:21:57;10.20;;;4.57;;
74541;SDS011;63015;45.378;20.360;2023-06-14T01:24:01;14.02;;;4.82;;
74541;SDS011;63015;45.378;20.360;2023-06-14T01:26:03;9.77;;;4.35;;
74541;SDS011;63015;45.378;20.360;2023-06-14T01:28:05;7.95;;;4.13;;
74541;SDS011;63015;45.378;20.360;2023-06-14T01:30:11;9.45;;;4.20;;
74541;SDS011;63015;45.378;20.360;2023-06-14T01:32:14;8.52;;;3.90;;
74541;SDS011;63015;45.378;20.360;2023-06-14T01:34:14;7.22;;;3.92;;
74541;SDS011;63015;45.378;20.360;2023-06-14T01:36:16;10.05;;;4.05;;
74541;SDS011;63015;45.378;20.360;2023-06-14T01:38:22;6.85;;;3.63;;
74541;SDS011;63015;45.378;20.360;2023-06-14T01:40:24;7.25;;;4.00;;
74541;SDS011;63015;45.378;20.360;2023-06-14T01:42:26;8.55;;;3.42;;
74541;SDS011;63015;45.378;20.360;2023-06-14T01:44:27;6.55;;;3.42;;
74541;SDS011;63015;45.378;20.360;2023-06-14T01:46:29;9.00;;;4.03;;
74541;SDS011;63015;45.378;20.360;2023-06-14T01:48:30;6.57;;;3.17;;
74541;SDS011;63015;45.378;20.360;2023-06-14T01:50:32;7.57;;;3.30;;
74541;SDS011;63015;45.378;20.360;2023-06-14T01:52:32;7.72;;;3.20;;
74541;SDS011;63015;45.378;20.360;2023-06-14T01:54:33;7.07;;;3.55;;
74541;SDS011;63015;45.378;20.360;2023-06-14T01:56:33;6.93;;;3.63;;
74541;SDS011;63015;45.378;20.360;2023-06-14T01:58:34;8.05;;;3.40;;
74541;SDS011;63015;45.378;20.360;2023-06-14T02:00:36;7.65;;;3.40;;
74541;SDS011;63015;45.378;20.360;2023-06-14T02:02:37;11.10;;;3.50;;
74541;SDS011;63015;45.378;20.360;2023-06-14T02:04:37;7.07;;;3.20;;
74541;SDS011;63015;45.378;20.360;2023-06-14T02:06:38;5.80;;;3.15;;
74541;SDS011;63015;45.378;20.360;2023-06-14T02:08:38;7.38;;;3.40;;
74541;SDS011;63015;45.378;20.360;2023-06-14T02:10:40;6.97;;;3.60;;
74541;SDS011;63015;45.378;20.360;2023-06-14T02:12:40;8.77;;;3.50;;
74541;SDS011;63015;45.378;20.360;2023-06-14T02:14:41;8.95;;;3.85;;
74541;SDS011;63015;45.378;20.360;2023-06-14T02:16:42;6.38;;;3.28;;
74541;SDS011;63015;45.378;20.360;2023-06-14T02:18:48;6.50;;;3.00;;
74541;SDS011;63015;45.378;20.360;2023-06-14T02:20:50;7.30;;;3.25;;
74541;SDS011;63015;45.378;20.360;2023-06-14T02:22:51;8.18;;;3.28;;
74541;SDS011;63015;45.378;20.360;2023-06-14T02:24:52;9.88;;;3.20;;
74541;SDS011;63015;45.378;20.360;2023-06-14T02:26:52;6.40;;;2.95;;
74541;SDS011;63015;45.378;20.360;2023-06-14T02:28:53;5.57;;;2.95;;
74541;SDS011;63015;45.378;20.360;2023-06-14T02:30:53;7.80;;;2.97;;
74541;SDS011;63015;45.378;20.360;2023-06-14T02:32:57;5.90;;;2.75;;
74541;SDS011;63015;45.378;20.360;2023-06-14T02:34:59;7.05;;;3.03;;
74541;SDS011;63015;45.378;20.360;2023-06-14T02:37:00;9.60;;;3.70;;
74541;SDS011;63015;45.378;20.360;2023-06-14T02:41:03;7.80;;;3.50;;
74541;SDS011;63015;45.378;20.360;2023-06-14T02:43:04;7.70;;;3.85;;
74541;SDS011;63015;45.378;20.360;2023-06-14T02:45:06;8.23;;;4.00;;
74541;SDS011;63015;45.378;20.360;2023-06-14T02:47:07;13.48;;;4.82;;
74541;SDS011;63015;45.378;20.360;2023-06-14T02:49:08;9.90;;;5.18;;
74541;SDS011;63015;45.378;20.360;2023-06-14T02:51:08;12.65;;;5.38;;
74541;SDS011;63015;45.378;20.360;2023-06-14T02:53:09;14.55;;;6.35;;
74541;SDS011;63015;45.378;20.360;2023-06-14T02:55:10;14.65;;;6.75;;
74541;SDS011;63015;45.378;20.360;2023-06-14T02:57:12;14.57;;;6.13;;
74541;SDS011;63015;45.378;20.360;2023-06-14T02:59:15;14.07;;;5.80;;
74541;SDS011;63015;45.378;20.360;2023-06-14T03:01:16;12.68;;;6.32;;
74541;SDS011;63015;45.378;20.360;2023-06-14T03:03:17;17.40;;;6.45;;
74541;SDS011;63015;45.378;20.360;2023-06-14T03:05:25;13.65;;;6.63;;
74541;SDS011;63015;45.378;20.360;2023-06-14T03:07:28;17.48;;;7.03;;
74541;SDS011;63015;45.378;20.360;2023-06-14T03:09:30;13.20;;;6.40;;
74541;SDS011;63015;45.378;20.360;2023-06-14T03:11:31;14.32;;;6.30;;
74541;SDS011;63015;45.378;20.360;2023-06-14T03:13:36;13.68;;;6.65;;
74541;SDS011;63015;45.378;20.360;2023-06-14T03:15:39;10.80;;;5.50;;
74541;SDS011;63015;45.378;20.360;2023-06-14T03:17:41;12.00;;;5.15;;
74541;SDS011;63015;45.378;20.360;2023-06-14T03:19:46;9.02;;;3.72;;
74541;SDS011;63015;45.378;20.360;2023-06-14T03:23:50;7.05;;;3.72;;
74541;SDS011;63015;45.378;20.360;2023-06-14T03:25:51;9.63;;;3.53;;
74541;SDS011;63015;45.378;20.360;2023-06-14T03:27:51;7.63;;;3.80;;
74541;SDS011;63015;45.378;20.360;2023-06-14T03:29:53;6.80;;;3.20;;
74541;SDS011;63015;45.378;20.360;2023-06-14T03:32:03;6.40;;;3.00;;
74541;SDS011;63015;45.378;20.360;2023-06-14T03:34:10;6.72;;;3.45;;
74541;SDS011;63015;45.378;20.360;2023-06-14T03:36:12;9.45;;;3.58;;
74541;SDS011;63015;45.378;20.360;2023-06-14T03:38:14;7.97;;;3.72;;
74541;SDS011;63015;45.378;20.360;2023-06-14T03:40:15;7.57;;;3.50;;
74541;SDS011;63015;45.378;20.360;2023-06-14T03:42:21;7.03;;;3.53;;
74541;SDS011;63015;45.378;20.360;2023-06-14T03:44:23;10.60;;;4.03;;
74541;SDS011;63015;45.378;20.360;2023-06-14T03:46:24;7.93;;;3.45;;
74541;SDS011;63015;45.378;20.360;2023-06-14T03:48:26;6.93;;;3.58;;
74541;SDS011;63015;45.378;20.360;2023-06-14T03:50:27;7.85;;;4.03;;
74541;SDS011;63015;45.378;20.360;2023-06-14T03:52:29;7.07;;;3.65;;
74541;SDS011;63015;45.378;20.360;2023-06-14T03:54:30;7.38;;;3.78;;
74541;SDS011;63015;45.378;20.360;2023-06-14T03:56:32;8.02;;;3.42;;
74541;SDS011;63015;45.378;20.360;2023-06-14T03:58:33;8.18;;;3.90;;
74541;SDS011;63015;45.378;20.360;2023-06-14T04:00:34;9.98;;;3.95;;
74541;SDS011;63015;45.378;20.360;2023-06-14T04:02:36;7.25;;;3.45;;
74541;SDS011;63015;45.378;20.360;2023-06-14T04:04:37;7.32;;;4.15;;
74541;SDS011;63015;45.378;20.360;2023-06-14T04:06:39;10.30;;;4.32;;
74541;SDS011;63015;45.378;20.360;2023-06-14T04:08:41;9.02;;;4.20;;
74541;SDS011;63015;45.378;20.360;2023-06-14T04:10:42;10.77;;;4.78;;
74541;SDS011;63015;45.378;20.360;2023-06-14T04:12:42;10.43;;;4.57;;
74541;SDS011;63015;45.378;20.360;2023-06-14T04:14:43;7.53;;;4.30;;
74541;SDS011;63015;45.378;20.360;2023-06-14T04:16:45;7.88;;;3.72;;
74541;SDS011;63015;45.378;20.360;2023-06-14T04:20:52;8.57;;;3.55;;
74541;SDS011;63015;45.378;20.360;2023-06-14T04:22:53;6.35;;;3.47;;
74541;SDS011;63015;45.378;20.360;2023-06-14T04:24:57;7.75;;;3.42;;
74541;SDS011;63015;45.378;20.360;2023-06-14T04:27:00;8.50;;;3.53;;
74541;SDS011;63015;45.378;20.360;2023-06-14T04:29:05;9.10;;;3.75;;
74541;SDS011;63015;45.378;20.360;2023-06-14T04:31:12;7.47;;;3.22;;
74541;SDS011;63015;45.378;20.360;2023-06-14T04:33:13;7.22;;;3.33;;
74541;SDS011;63015;45.378;20.360;2023-06-14T04:35:15;6.32;;;3.10;;
74541;SDS011;63015;45.378;20.360;2023-06-14T04:37:17;9.45;;;3.50;;
74541;SDS011;63015;45.378;20.360;2023-06-14T04:39:19;6.82;;;3.10;;
74541;SDS011;63015;45.378;20.360;2023-06-14T04:41:23;8.55;;;3.35;;
74541;SDS011;63015;45.378;20.360;2023-06-14T04:43:31;7.35;;;3.38;;
74541;SDS011;63015;45.378;20.360;2023-06-14T04:45:37;6.72;;;3.50;;
74541;SDS011;63015;45.378;20.360;2023-06-14T04:47:40;9.07;;;3.30;;
74541;SDS011;63015;45.378;20.360;2023-06-14T04:49:42;7.65;;;3.78;;
74541;SDS011;63015;45.378;20.360;2023-06-14T04:51:43;6.93;;;3.25;;
74541;SDS011;63015;45.378;20.360;2023-06-14T04:53:45;7.43;;;3.13;;
74541;SDS011;63015;45.378;20.360;2023-06-14T04:55:46;6.45;;;3.05;;
74541;SDS011;63015;45.378;20.360;2023-06-14T04:57:48;6.75;;;3.35;;
74541;SDS011;63015;45.378;20.360;2023-06-14T04:59:49;6.88;;;2.88;;
74541;SDS011;63015;45.378;20.360;2023-06-14T05:01:54;7.13;;;2.92;;
74541;SDS011;63015;45.378;20.360;2023-06-14T05:03:57;7.97;;;2.97;;
74541;SDS011;63015;45.378;20.360;2023-06-14T05:05:58;8.45;;;3.13;;
74541;SDS011;63015;45.378;20.360;2023-06-14T05:08:02;6.97;;;2.90;;
74541;SDS011;63015;45.378;20.360;2023-06-14T05:10:02;9.00;;;2.63;;
74541;SDS011;63015;45.378;20.360;2023-06-14T05:12:04;6.88;;;2.95;;
74541;SDS011;63015;45.378;20.360;2023-06-14T05:14:05;6.22;;;2.47;;
74541;SDS011;63015;45.378;20.360;2023-06-14T05:16:06;6.57;;;2.40;;
74541;SDS011;63015;45.378;20.360;2023-06-14T05:18:09;6.35;;;2.85;;
74541;SDS011;63015;45.378;20.360;2023-06-14T05:20:10;6.55;;;2.65;;
74541;SDS011;63015;45.378;20.360;2023-06-14T05:22:11;4.85;;;2.38;;
74541;SDS011;63015;45.378;20.360;2023-06-14T05:24:12;6.90;;;2.33;;
74541;SDS011;63015;45.378;20.360;2023-06-14T05:26:12;6.88;;;2.90;;
74541;SDS011;63015;45.378;20.360;2023-06-14T05:28:13;6.50;;;2.70;;
74541;SDS011;63015;45.378;20.360;2023-06-14T05:30:16;6.80;;;2.60;;
74541;SDS011;63015;45.378;20.360;2023-06-14T05:32:17;6.53;;;2.70;;
74541;SDS011;63015;45.378;20.360;2023-06-14T05:34:17;6.35;;;2.10;;
74541;SDS011;63015;45.378;20.360;2023-06-14T05:36:18;7.00;;;2.75;;
74541;SDS011;63015;45.378;20.360;2023-06-14T05:38:19;6.82;;;2.40;;
74541;SDS011;63015;45.378;20.360;2023-06-14T05:40:20;5.80;;;2.70;;
74541;SDS011;63015;45.378;20.360;2023-06-14T05:42:21;7.78;;;2.72;;
74541;SDS011;63015;45.378;20.360;2023-06-14T05:44:21;7.47;;;2.70;;
74541;SDS011;63015;45.378;20.360;2023-06-14T05:46:22;6.13;;;2.67;;
74541;SDS011;63015;45.378;20.360;2023-06-14T05:48:25;6.00;;;2.33;;
74541;SDS011;63015;45.378;20.360;2023-06-14T05:50:26;6.70;;;2.40;;
74541;SDS011;63015;45.378;20.360;2023-06-14T05:52:27;6.20;;;2.45;;
74541;SDS011;63015;45.378;20.360;2023-06-14T05:54:28;6.78;;;2.65;;
74541;SDS011;63015;45.378;20.360;2023-06-14T05:56:28;5.38;;;2.60;;
74541;SDS011;63015;45.378;20.360;2023-06-14T05:58:29;5.38;;;2.58;;
74541;SDS011;63015;45.378;20.360;2023-06-14T06:00:30;7.80;;;2.40;;
74541;SDS011;63015;45.378;20.360;2023-06-14T06:02:31;7.97;;;2.10;;
74541;SDS011;63015;45.378;20.360;2023-06-14T06:04:32;10.20;;;2.22;;
74541;SDS011;63015;45.378;20.360;2023-06-14T06:06:32;12.75;;;2.90;;
74541;SDS011;63015;45.378;20.360;2023-06-14T06:08:33;8.15;;;2.47;;
74541;SDS011;63015;45.378;20.360;2023-06-14T06:10:33;5.95;;;1.88;;
74541;SDS011;63015;45.378;20.360;2023-06-14T06:12:34;9.95;;;2.90;;
74541;SDS011;63015;45.378;20.360;2023-06-14T06:14:35;5.55;;;2.22;;
74541;SDS011;63015;45.378;20.360;2023-06-14T06:16:36;9.27;;;2.42;;
74541;SDS011;63015;45.378;20.360;2023-06-14T06:18:36;4.70;;;2.13;;
74541;SDS011;63015;45.378;20.360;2023-06-14T06:20:37;7.40;;;2.33;;
74541;SDS011;63015;45.378;20.360;2023-06-14T06:22:38;5.03;;;2.17;;
74541;SDS011;63015;45.378;20.360;2023-06-14T06:24:39;4.85;;;2.28;;
74541;SDS011;63015;45.378;20.360;2023-06-14T06:26:39;6.75;;;2.05;;
74541;SDS011;63015;45.378;20.360;2023-06-14T06:28:40;5.28;;;2.65;;
74541;SDS011;63015;45.378;20.360;2023-06-14T06:30:41;7.20;;;2.17;;
74541;SDS011;63015;45.378;20.360;2023-06-14T06:32:41;6.30;;;2.40;;
74541;SDS011;63015;45.378;20.360;2023-06-14T06:34:43;6.80;;;2.17;;
74541;SDS011;63015;45.378;20.360;2023-06-14T06:36:44;5.70;;;1.98;;
74541;SDS011;63015;45.378;20.360;2023-06-14T06:38:45;4.07;;;2.10;;
74541;SDS011;63015;45.378;20.360;2023-06-14T06:40:45;4.88;;;1.92;;
74541;SDS011;63015;45.378;20.360;2023-06-14T06:42:48;8.18;;;2.40;;
74541;SDS011;63015;45.378;20.360;2023-06-14T06:44:52;5.57;;;2.10;;
74541;SDS011;63015;45.378;20.360;2023-06-14T06:46:52;5.80;;;2.17;;
74541;SDS011;63015;45.378;20.360;2023-06-14T06:48:53;4.18;;;1.80;;
74541;SDS011;63015;45.378;20.360;2023-06-14T06:50:54;4.07;;;2.00;;
74541;SDS011;63015;45.378;20.360;2023-06-14T06:52:55;4.30;;;1.50;;
74541;SDS011;63015;45.378;20.360;2023-06-14T06:54:56;4.18;;;2.00;;
74541;SDS011;63015;45.378;20.360;2023-06-14T06:56:57;5.32;;;1.83;;
74541;SDS011;63015;45.378;20.360;2023-06-14T06:58:58;3.72;;;1.73;;
74541;SDS011;63015;45.378;20.360;2023-06-14T07:00:59;4.82;;;1.63;;
74541;SDS011;63015;45.378;20.360;2023-06-14T07:02:59;4.43;;;1.80;;
74541;SDS011;63015;45.378;20.360;2023-06-14T07:05:00;6.35;;;2.00;;
74541;SDS011;63015;45.378;20.360;2023-06-14T07:07:01;3.50;;;1.77;;
74541;SDS011;63015;45.378;20.360;2023-06-14T07:09:01;4.22;;;2.03;;
74541;SDS011;63015;45.378;20.360;2023-06-14T07:11:05;4.15;;;1.83;;
74541;SDS011;63015;45.378;20.360;2023-06-14T07:13:06;6.47;;;2.00;;
74541;SDS011;63015;45.378;20.360;2023-06-14T07:15:07;4.68;;;2.08;;
74541;SDS011;63015;45.378;20.360;2023-06-14T07:17:08;6.32;;;1.65;;
74541;SDS011;63015;45.378;20.360;2023-06-14T07:19:11;4.78;;;2.03;;
74541;SDS011;63015;45.378;20.360;2023-06-14T07:21:11;4.53;;;2.08;;
74541;SDS011;63015;45.378;20.360;2023-06-14T07:23:12;6.00;;;2.22;;
74541;SDS011;63015;45.378;20.360;2023-06-14T07:25:12;4.47;;;2.15;;
74541;SDS011;63015;45.378;20.360;2023-06-14T07:27:14;3.78;;;1.67;;
74541;SDS011;63015;45.378;20.360;2023-06-14T07:29:14;4.95;;;1.80;;
74541;SDS011;63015;45.378;20.360;2023-06-14T07:31:16;4.05;;;2.17;;
74541;SDS011;63015;45.378;20.360;2023-06-14T07:33:19;5.00;;;2.33;;
74541;SDS011;63015;45.378;20.360;2023-06-14T07:35:19;4.88;;;2.17;;
74541;SDS011;63015;45.378;20.360;2023-06-14T07:37:20;5.20;;;1.95;;
74541;SDS011;63015;45.378;20.360;2023-06-14T07:39:20;4.70;;;1.95;;
74541;SDS011;63015;45.378;20.360;2023-06-14T07:41:22;3.88;;;2.20;;
74541;SDS011;63015;45.378;20.360;2023-06-14T07:43:22;5.05;;;1.77;;
74541;SDS011;63015;45.378;20.360;2023-06-14T07:45:23;6.07;;;2.42;;
74541;SDS011;63015;45.378;20.360;2023-06-14T07:47:24;4.60;;;1.90;;
74541;SDS011;63015;45.378;20.360;2023-06-14T07:49:25;4.32;;;1.95;;
74541;SDS011;63015;45.378;20.360;2023-06-14T07:51:26;3.55;;;1.88;;
74541;SDS011;63015;45.378;20.360;2023-06-14T07:53:28;6.60;;;2.13;;
74541;SDS011;63015;45.378;20.360;2023-06-14T07:55:28;7.90;;;2.13;;
74541;SDS011;63015;45.378;20.360;2023-06-14T07:57:29;5.82;;;2.30;;
74541;SDS011;63015;45.378;20.360;2023-06-14T07:59:29;4.45;;;1.55;;
74541;SDS011;63015;45.378;20.360;2023-06-14T08:01:32;5.65;;;1.95;;
74541;SDS011;63015;45.378;20.360;2023-06-14T08:03:35;5.65;;;1.90;;
74541;SDS011;63015;45.378;20.360;2023-06-14T08:05:35;4.97;;;2.17;;
74541;SDS011;63015;45.378;20.360;2023-06-14T08:07:36;3.50;;;1.67;;
74541;SDS011;63015;45.378;20.360;2023-06-14T08:09:37;4.55;;;1.83;;
74541;SDS011;63015;45.378;20.360;2023-06-14T08:11:38;4.05;;;1.48;;
74541;SDS011;63015;45.378;20.360;2023-06-14T08:13:38;5.75;;;2.05;;
74541;SDS011;63015;45.378;20.360;2023-06-14T08:15:39;4.47;;;2.10;;
74541;SDS011;63015;45.378;20.360;2023-06-14T08:17:40;4.82;;;1.80;;
74541;SDS011;63015;45.378;20.360;2023-06-14T08:19:40;4.80;;;1.60;;
74541;SDS011;63015;45.378;20.360;2023-06-14T08:21:41;7.47;;;1.77;;
74541;SDS011;63015;45.378;20.360;2023-06-14T08:23:42;4.55;;;1.60;;
74541;SDS011;63015;45.378;20.360;2023-06-14T08:25:45;4.53;;;1.77;;
74541;SDS011;63015;45.378;20.360;2023-06-14T08:27:46;4.32;;;1.73;;
74541;SDS011;63015;45.378;20.360;2023-06-14T08:29:46;8.38;;;1.90;;
74541;SDS011;63015;45.378;20.360;2023-06-14T08:31:47;4.13;;;2.03;;
74541;SDS011;63015;45.378;20.360;2023-06-14T08:33:48;4.00;;;2.42;;
74541;SDS011;63015;45.378;20.360;2023-06-14T08:35:48;3.80;;;1.63;;
74541;SDS011;63015;45.378;20.360;2023-06-14T08:37:49;4.57;;;1.80;;
74541;SDS011;63015;45.378;20.360;2023-06-14T08:39:50;4.45;;;1.80;;
74541;SDS011;63015;45.378;20.360;2023-06-14T08:41:50;5.32;;;2.20;;
74541;SDS011;63015;45.378;20.360;2023-06-14T08:43:52;4.80;;;1.73;;
74541;SDS011;63015;45.378;20.360;2023-06-14T08:45:53;5.40;;;2.10;;
74541;SDS011;63015;45.378;20.360;2023-06-14T08:47:59;5.03;;;1.80;;
74541;SDS011;63015;45.378;20.360;2023-06-14T08:50:00;6.60;;;2.20;;
74541;SDS011;63015;45.378;20.360;2023-06-14T08:52:01;3.28;;;1.58;;
74541;SDS011;63015;45.378;20.360;2023-06-14T08:54:02;105.18;;;10.75;;
74541;SDS011;63015;45.378;20.360;2023-06-14T08:56:04;4.45;;;2.00;;
74541;SDS011;63015;45.378;20.360;2023-06-14T08:58:05;4.30;;;1.88;;
74541;SDS011;63015;45.378;20.360;2023-06-14T09:00:06;4.88;;;1.90;;
74541;SDS011;63015;45.378;20.360;2023-06-14T09:02:13;5.13;;;1.85;;
74541;SDS011;63015;45.378;20.360;2023-06-14T09:04:14;3.17;;;1.27;;
74541;SDS011;63015;45.378;20.360;2023-06-14T09:06:15;4.85;;;1.95;;
74541;SDS011;63015;45.378;20.360;2023-06-14T09:08:18;5.90;;;1.83;;
74541;SDS011;63015;45.378;20.360;2023-06-14T09:10:22;4.10;;;1.83;;
74541;SDS011;63015;45.378;20.360;2023-06-14T09:12:23;9.57;;;2.03;;
74541;SDS011;63015;45.378;20.360;2023-06-14T09:14:24;3.63;;;1.65;;
74541;SDS011;63015;45.378;20.360;2023-06-14T09:16:25;5.07;;;1.73;;
74541;SDS011;63015;45.378;20.360;2023-06-14T09:18:35;3.50;;;1.55;;
74541;SDS011;63015;45.378;20.360;2023-06-14T09:20:39;4.10;;;1.70;;
74541;SDS011;63015;45.378;20.360;2023-06-14T09:22:41;5.50;;;1.70;;
74541;SDS011;63015;45.378;20.360;2023-06-14T09:24:49;5.00;;;1.92;;
74541;SDS011;63015;45.378;20.360;2023-06-14T09:26:53;4.70;;;1.60;;
74541;SDS011;63015;45.378;20.360;2023-06-14T09:28:54;3.70;;;1.63;;
74541;SDS011;63015;45.378;20.360;2023-06-14T09:30:55;5.25;;;1.48;;
74541;SDS011;63015;45.378;20.360;2023-06-14T09:32:56;4.97;;;1.20;;
74541;SDS011;63015;45.378;20.360;2023-06-14T09:34:57;5.47;;;1.77;;
74541;SDS011;63015;45.378;20.360;2023-06-14T09:36:58;5.15;;;1.58;;
74541;SDS011;63015;45.378;20.360;2023-06-14T09:38:59;4.47;;;1.60;;
74541;SDS011;63015;45.378;20.360;2023-06-14T09:41:04;10.52;;;2.17;;
74541;SDS011;63015;45.378;20.360;2023-06-14T09:43:05;5.80;;;1.80;;
74541;SDS011;63015;45.378;20.360;2023-06-14T09:45:09;5.32;;;1.60;;
74541;SDS011;63015;45.378;20.360;2023-06-14T09:47:12;3.90;;;1.55;;
74541;SDS011;63015;45.378;20.360;2023-06-14T09:49:13;4.15;;;1.20;;
74541;SDS011;63015;45.378;20.360;2023-06-14T09:51:16;2.35;;;1.15;;
74541;SDS011;63015;45.378;20.360;2023-06-14T09:53:21;5.18;;;1.63;;
74541;SDS011;63015;45.378;20.360;2023-06-14T09:55:23;5.03;;;1.70;;
74541;SDS011;63015;45.378;20.360;2023-06-14T09:57:26;4.85;;;1.90;;
74541;SDS011;63015;45.378;20.360;2023-06-14T09:59:31;5.18;;;1.77;;
74541;SDS011;63015;45.378;20.360;2023-06-14T10:01:33;2.70;;;1.15;;
74541;SDS011;63015;45.378;20.360;2023-06-14T10:03:35;3.78;;;1.80;;
74541;SDS011;63015;45.378;20.360;2023-06-14T10:05:37;3.60;;;1.33;;
74541;SDS011;63015;45.378;20.360;2023-06-14T10:07:42;3.75;;;1.67;;
74541;SDS011;63015;45.378;20.360;2023-06-14T10:09:47;6.70;;;1.67;;
74541;SDS011;63015;45.378;20.360;2023-06-14T10:11:49;3.80;;;1.80;;
74541;SDS011;63015;45.378;20.360;2023-06-14T10:13:51;4.70;;;1.50;;
74541;SDS011;63015;45.378;20.360;2023-06-14T10:16:12;7.10;;;1.88;;
74541;SDS011;63015;45.378;20.360;2023-06-14T10:20:51;6.60;;;1.30;;
74541;SDS011;63015;45.378;20.360;2023-06-14T10:23:06;5.93;;;1.70;;
74541;SDS011;63015;45.378;20.360;2023-06-14T10:25:25;4.75;;;1.92;;
74541;SDS011;63015;45.378;20.360;2023-06-14T10:27:30;5.90;;;1.85;;
74541;SDS011;63015;45.378;20.360;2023-06-14T10:29:31;7.82;;;1.90;;
74541;SDS011;63015;45.378;20.360;2023-06-14T10:31:47;4.40;;;1.30;;
74541;SDS011;63015;45.378;20.360;2023-06-14T10:33:50;3.65;;;1.45;;
74541;SDS011;63015;45.378;20.360;2023-06-14T10:36:09;4.88;;;2.13;;
74541;SDS011;63015;45.378;20.360;2023-06-14T10:38:30;3.75;;;1.60;;
74541;SDS011;63015;45.378;20.360;2023-06-14T10:40:32;3.78;;;1.80;;
74541;SDS011;63015;45.378;20.360;2023-06-14T10:42:35;6.15;;;1.70;;
74541;SDS011;63015;45.378;20.360;2023-06-14T10:46:47;4.03;;;1.77;;
74541;SDS011;63015;45.378;20.360;2023-06-14T10:48:56;3.67;;;1.48;;
74541;SDS011;63015;45.378;20.360;2023-06-14T10:51:00;4.57;;;1.80;;
74541;SDS011;63015;45.378;20.360;2023-06-14T10:53:03;6.95;;;2.22;;
74541;SDS011;63015;45.378;20.360;2023-06-14T10:55:22;6.13;;;2.15;;
74541;SDS011;63015;45.378;20.360;2023-06-14T10:57:23;4.18;;;1.80;;
74541;SDS011;63015;45.378;20.360;2023-06-14T10:59:24;4.35;;;1.73;;
74541;SDS011;63015;45.378;20.360;2023-06-14T11:04:08;5.65;;;1.83;;
74541;SDS011;63015;45.378;20.360;2023-06-14T11:06:14;5.07;;;1.98;;
74541;SDS011;63015;45.378;20.360;2023-06-14T11:10:38;5.25;;;1.90;;
74541;SDS011;63015;45.378;20.360;2023-06-14T11:12:40;3.70;;;1.70;;
74541;SDS011;63015;45.378;20.360;2023-06-14T11:16:49;3.70;;;1.60;;
74541;SDS011;63015;45.378;20.360;2023-06-14T11:18:50;10.25;;;2.63;;
74541;SDS011;63015;45.378;20.360;2023-06-14T11:20:51;6.60;;;1.90;;
74541;SDS011;63015;45.378;20.360;2023-06-14T11:22:52;6.35;;;1.90;;
74541;SDS011;63015;45.378;20.360;2023-06-14T11:24:53;4.25;;;1.70;;
74541;SDS011;63015;45.378;20.360;2023-06-14T11:26:54;6.47;;;1.73;;
74541;SDS011;63015;45.378;20.360;2023-06-14T11:28:58;7.57;;;1.90;;
74541;SDS011;63015;45.378;20.360;2023-06-14T11:31:00;5.25;;;2.05;;
74541;SDS011;63015;45.378;20.360;2023-06-14T11:33:01;6.18;;;2.10;;
74541;SDS011;63015;45.378;20.360;2023-06-14T11:35:02;5.70;;;1.98;;
74541;SDS011;63015;45.378;20.360;2023-06-14T11:37:05;3.90;;;1.70;;
74541;SDS011;63015;45.378;20.360;2023-06-14T11:39:06;3.63;;;2.20;;
74541;SDS011;63015;45.378;20.360;2023-06-14T11:41:07;4.82;;;1.73;;
74541;SDS011;63015;45.378;20.360;2023-06-14T11:43:08;5.68;;;2.53;;
74541;SDS011;63015;45.378;20.360;2023-06-14T11:45:09;4.72;;;2.05;;
74541;SDS011;63015;45.378;20.360;2023-06-14T11:47:11;5.78;;;2.45;;
74541;SDS011;63015;45.378;20.360;2023-06-14T11:49:12;6.50;;;2.10;;
74541;SDS011;63015;45.378;20.360;2023-06-14T11:51:12;6.35;;;2.60;;
74541;SDS011;63015;45.378;20.360;2023-06-14T11:53:13;6.53;;;2.17;;
74541;SDS011;63015;45.378;20.360;2023-06-14T11:55:14;6.57;;;1.80;;
74541;SDS011;63015;45.378;20.360;2023-06-14T11:57:15;4.00;;;1.63;;
74541;SDS011;63015;45.378;20.360;2023-06-14T11:59:18;6.90;;;2.30;;
74541;SDS011;63015;45.378;20.360;2023-06-14T12:01:22;4.32;;;2.15;;
74541;SDS011;63015;45.378;20.360;2023-06-14T12:03:23;26.60;;;3.58;;
74541;SDS011;63015;45.378;20.360;2023-06-14T12:05:30;6.03;;;2.08;;
74541;SDS011;63015;45.378;20.360;2023-06-14T12:07:34;5.13;;;2.13;;
74541;SDS011;63015;45.378;20.360;2023-06-14T12:09:35;5.55;;;2.17;;
74541;SDS011;63015;45.378;20.360;2023-06-14T12:11:37;4.38;;;2.20;;
74541;SDS011;63015;45.378;20.360;2023-06-14T12:13:38;5.00;;;2.17;;
74541;SDS011;63015;45.378;20.360;2023-06-14T12:15:40;6.43;;;2.00;;
74541;SDS011;63015;45.378;20.360;2023-06-14T12:17:41;4.85;;;2.20;;
74541;SDS011;63015;45.378;20.360;2023-06-14T12:19:44;9.50;;;2.33;;
74541;SDS011;63015;45.378;20.360;2023-06-14T12:21:46;5.05;;;2.20;;
74541;SDS011;63015;45.378;20.360;2023-06-14T12:23:49;4.82;;;2.00;;
74541;SDS011;63015;45.378;20.360;2023-06-14T12:25:51;6.25;;;2.08;;